Time;durP1;ratioP1;P1;durP2;ratioP2;P2;SDS_P1;SDS_P2;PMS_P1;PMS_P2;Temp;Humidity;BMP_temperature;BMP_pressure;BME280_temperature;BME280_humidity;BME280_pressure;Samples;Min_cycle;Max_cycle;Signal;HPM_P1;HPM_P2
2022/10/08 00:01:20;;;;;;;1.48;1.37;;;;;;;11.95;79.45;99877.09;4249986;33;33409;-73
2022/10/08 00:03:53;;;;;;;1.23;1.17;;;;;;;11.72;80.25;99874.62;4249979;33;33940;-76
2022/10/08 00:06:24;;;;;;;1.17;1.10;;;;;;;11.40;81.07;99886.13;4249850;33;35151;-72
2022/10/08 00:08:55;;;;;;;1.85;1.75;;;;;;;11.44;82.33;99881.75;4250151;33;34569;-78
2022/10/08 00:11:25;;;;;;;2.08;1.45;;;;;;;11.88;79.56;99873.63;4249783;33;34331;-72
2022/10/08 00:13:54;;;;;;;1.12;1.05;;;;;;;12.14;76.92;99883.03;4261510;33;34615;-72
2022/10/08 00:16:22;;;;;;;0.90;0.90;;;;;;;11.47;79.82;99873.91;4249735;33;35032;-72
2022/10/08 00:18:52;;;;;;;0.95;0.88;;;;;;;11.24;81.67;99876.63;4262585;33;34395;-79
2022/10/08 00:21:26;;;;;;;0.75;0.75;;;;;;;11.36;80.85;99877.47;4262503;33;33657;-72
2022/10/08 00:23:55;;;;;;;1.55;1.45;;;;;;;11.05;83.02;99871.53;4249872;33;33885;-76
2022/10/08 00:26:25;;;;;;;1.02;1.02;;;;;;;11.56;81.60;99869.50;4249614;33;34926;-72
2022/10/08 00:28:55;;;;;;;1.60;1.50;;;;;;;11.90;78.96;99866.69;4249675;33;34359;-73
2022/10/08 00:31:26;;;;;;;1.00;1.00;;;;;;;11.70;79.75;99863.31;4249719;33;33830;-73
2022/10/08 00:33:56;;;;;;;1.30;1.27;;;;;;;11.57;79.78;99860.78;4262580;33;33031;-70
2022/10/08 00:36:27;;;;;;;1.40;1.35;;;;;;;11.18;82.16;99854.06;4262312;33;36117;-79
2022/10/08 00:38:56;;;;;;;4.03;3.72;;;;;;;11.76;80.22;99852.84;4262505;33;34534;-77
2022/10/08 00:41:26;;;;;;;0.93;0.88;;;;;;;11.47;81.76;99853.03;4262441;33;34419;-72
2022/10/08 00:43:57;;;;;;;1.40;1.30;;;;;;;11.77;82.05;99846.78;4249647;33;33885;-75
2022/10/08 00:46:29;;;;;;;1.60;1.50;;;;;;;11.25;85.32;99842.75;4262300;33;34940;-73
2022/10/08 00:49:12;;;;;;;1.73;1.62;;;;;;;11.53;82.84;99830.41;4249561;33;34454;-74
2022/10/08 00:51:46;;;;;;;1.37;1.27;;;;;;;11.77;83.59;99833.72;4249644;33;33401;-73
2022/10/08 00:54:15;;;;;;;1.95;1.67;;;;;;;12.17;79.42;99833.41;4249815;33;34639;-72
2022/10/08 00:56:43;;;;;;;2.58;2.12;;;;;;;12.10;80.21;99829.12;4247998;33;33850;-78
2022/10/08 00:59:11;;;;;;;2.37;2.15;;;;;;;11.38;87.11;99835.72;4246937;33;35252;-76
2022/10/08 01:01:42;;;;;;;1.40;1.20;;;;;;;11.37;86.87;99836.59;4246247;33;33482;-70
2022/10/08 01:04:12;;;;;;;2.28;2.15;;;;;;;11.52;86.46;99825.19;4233735;33;35176;-77
2022/10/08 01:06:43;;;;;;;1.40;1.30;;;;;;;12.05;84.30;99820.47;4221291;33;36055;-76
2022/10/08 01:09:14;;;;;;;1.73;1.62;;;;;;;11.53;87.27;99833.00;4233806;33;35369;-76
2022/10/08 01:12:05;;;;;;;1.15;1.10;;;;;;;11.75;86.49;99832.84;4221427;33;33534;-70
2022/10/08 01:14:58;;;;;;;3.00;2.25;;;;;;;11.92;85.89;99825.78;4221196;33;33892;-72
2022/10/08 01:17:53;;;;;;;2.08;1.48;;;;;;;12.51;82.64;99822.59;4233704;33;35077;-70
2022/10/08 01:20:30;;;;;;;8.43;3.87;;;;;;;12.09;85.20;99822.19;4232647;33;34380;-78
2022/10/08 01:23:19;;;;;;;2.72;2.22;;;;;;;12.05;86.00;99815.25;4233731;33;33644;-75
2022/10/08 01:26:02;;;;;;;2.00;1.48;;;;;;;12.04;87.16;99813.53;4220857;33;33451;-72
2022/10/08 01:28:34;;;;;;;1.12;1.12;;;;;;;12.16;86.40;99816.03;4221375;33;35021;-74
2022/10/08 01:31:08;;;;;;;1.25;1.08;;;;;;;12.46;84.72;99811.37;4221204;33;35108;-73
2022/10/08 01:33:39;;;;;;;2.35;2.15;;;;;;;12.28;83.71;99809.78;4221261;33;33065;-78
2022/10/08 01:36:09;;;;;;;0.65;0.65;;;;;;;12.41;83.20;99807.94;4233876;33;33946;-78
2022/10/08 01:38:41;;;;;;;5.62;1.40;;;;;;;11.93;84.86;99796.22;4221069;33;36009;-79
2022/10/08 01:41:11;;;;;;;1.33;1.23;;;;;;;12.09;85.08;99801.31;4221314;33;34424;-73
2022/10/08 01:43:43;;;;;;;2.97;2.70;;;;;;;12.06;85.45;99790.88;4221145;33;33380;-79
2022/10/08 01:46:17;;;;;;;0.88;0.88;;;;;;;11.92;85.67;99791.00;4221185;33;33910;-73
2022/10/08 01:48:45;;;;;;;1.35;1.25;;;;;;;12.12;85.26;99796.91;4233735;33;35045;-76
2022/10/08 01:51:22;;;;;;;1.70;1.45;;;;;;;11.79;84.87;99791.94;4221027;33;35117;-72
2022/10/08 01:53:51;;;;;;;1.15;1.15;;;;;;;12.65;80.10;99785.88;4233837;33;33611;-72
2022/10/08 01:56:22;;;;;;;1.60;1.50;;;;;;;11.79;83.70;99782.41;4221131;33;34846;-74
2022/10/08 01:59:13;;;;;;;2.92;2.70;;;;;;;12.07;81.97;99787.37;4209640;33;35102;-73
2022/10/08 02:01:50;;;;;;;1.25;1.15;;;;;;;12.07;82.90;99787.37;4224926;33;34501;-72
2022/10/08 02:04:35;;;;;;;1.37;1.27;;;;;;;12.32;80.36;99778.41;4233766;33;33472;-73
2022/10/08 02:07:07;;;;;;;2.47;1.48;;;;;;;11.57;82.09;99785.16;4222650;33;34949;-72
2022/10/08 02:09:41;;;;;;;2.83;2.58;;;;;;;11.30;83.09;99782.75;4209542;33;35271;-71
2022/10/08 02:12:10;;;;;;;1.60;1.50;;;;;;;11.34;83.23;99779.25;4219657;33;34225;-72
2022/10/08 02:14:41;;;;;;;1.67;1.58;;;;;;;11.48;81.99;99772.19;4233567;33;33605;-78
2022/10/08 02:17:36;;;;;;;2.55;2.30;;;;;;;11.98;79.27;99774.41;4233557;33;34847;-70
2022/10/08 02:20:07;;;;;;;1.35;1.23;;;;;;;11.77;80.11;99773.72;4233560;33;34933;-72
2022/10/08 02:22:39;;;;;;;1.27;1.17;;;;;;;11.43;81.59;99779.19;4233756;33;34530;-87
2022/10/08 02:25:34;;;;;;;0.60;0.60;;;;;;;11.79;78.55;99765.84;4221147;33;34112;-78
2022/10/08 02:28:04;;;;;;;2.17;1.92;;;;;;;11.63;80.66;99767.72;4233492;33;33988;-71
2022/10/08 02:30:40;;;;;;;1.77;1.67;;;;;;;11.19;81.10;99773.25;4233450;33;36002;-73
2022/10/08 02:33:13;;;;;;;0.82;0.82;;;;;;;11.06;82.14;99763.78;4220891;33;35253;-78
2022/10/08 02:35:46;;;;;;;0.88;0.85;;;;;;;11.10;82.26;99768.12;4221076;33;33577;-72
2022/10/08 02:38:18;;;;;;;1.65;1.55;;;;;;;11.02;83.02;99767.28;4220760;33;34695;-70
2022/10/08 02:40:48;;;;;;;2.87;0.95;;;;;;;11.44;80.21;99761.81;4209396;33;35154;-70
2022/10/08 02:43:24;;;;;;;1.10;1.05;;;;;;;11.91;77.01;99755.34;4220833;33;34466;-71
2022/10/08 02:45:59;;;;;;;1.70;1.48;;;;;;;11.07;79.86;99762.06;4220919;33;33403;-72
2022/10/08 02:48:30;;;;;;;3.85;2.75;;;;;;;11.58;78.70;99763.41;4220717;33;33946;-73
2022/10/08 02:51:05;;;;;;;1.75;1.65;;;;;;;11.10;80.48;99768.12;4220839;33;35010;-72
2022/10/08 02:53:36;;;;;;;1.50;1.40;;;;;;;11.56;78.16;99765.19;4220721;33;34451;-78
2022/10/08 02:56:04;;;;;;;2.92;1.70;;;;;;;11.76;75.45;99759.78;4220964;33;33479;-78
2022/10/08 02:58:32;;;;;;;1.15;1.15;;;;;;;11.14;77.57;99762.00;4233239;33;34798;-73
2022/10/08 03:01:22;;;;;;;2.25;1.65;;;;;;;11.38;77.51;99760.97;4220581;33;35981;-73
2022/10/08 03:04:01;;;;;;;2.37;2.15;;;;;;;11.19;78.85;99760.22;4233235;33;35048;-72
2022/10/08 03:06:30;;;;;;;1.17;1.12;;;;;;;11.19;78.98;99762.84;4220608;33;33625;-72
2022/10/08 03:08:59;;;;;;;3.70;2.08;;;;;;;11.04;79.08;99768.12;4220713;33;34010;-75
2022/10/08 03:11:28;;;;;;;0.73;0.73;;;;;;;10.62;80.45;99765.75;4220424;33;35875;-76
2022/10/08 03:13:57;;;;;;;0.68;0.68;;;;;;;10.96;78.85;99756.91;4233181;33;34545;-71
2022/10/08 03:16:33;;;;;;;1.20;1.10;;;;;;;11.00;79.26;99758.63;4231875;33;33464;-72
2022/10/08 03:19:02;;;;;;;1.98;1.50;;;;;;;10.87;79.66;99759.53;4233078;33;33933;-78
2022/10/08 03:21:31;;;;;;;1.10;1.08;;;;;;;10.86;80.81;99761.28;4220418;33;35185;-78
2022/10/08 03:23:59;;;;;;;4.12;2.40;;;;;;;10.33;83.63;99760.62;4232633;33;35311;-75
2022/10/08 03:26:26;;;;;;;4.35;2.80;;;;;;;10.18;83.98;99763.25;4232942;33;34420;-78
2022/10/08 03:28:54;;;;;;;4.25;2.42;;;;;;;10.67;81.69;99765.72;4232885;33;34054;-72
2022/10/08 03:31:22;;;;;;;1.08;0.95;;;;;;;10.65;81.73;99762.25;4232922;33;35900;-78
2022/10/08 03:33:51;;;;;;;0.75;0.75;;;;;;;10.84;81.58;99762.19;4231828;33;34367;-72
2022/10/08 03:36:20;;;;;;;1.20;1.20;;;;;;;10.70;81.09;99759.66;4220227;33;33453;-70
2022/10/08 03:38:50;;;;;;;1.05;0.95;;;;;;;11.27;77.66;99759.31;4220137;33;34172;-70
2022/10/08 03:41:18;;;;;;;2.25;2.05;;;;;;;10.47;81.95;99758.00;4232676;33;35166;-73
2022/10/08 03:43:46;;;;;;;3.87;1.70;;;;;;;10.75;80.60;99768.31;4220103;33;35038;-70
2022/10/08 03:46:14;;;;;;;3.30;1.77;;;;;;;11.04;79.75;99757.72;4232628;33;34275;-71
2022/10/08 03:48:42;;;;;;;1.65;1.55;;;;;;;11.12;80.13;99757.69;4219883;33;33959;-78
2022/10/08 03:51:12;;;;;;;2.10;1.62;;;;;;;11.04;80.64;99762.94;4219917;33;35064;-78
2022/10/08 03:53:41;;;;;;;1.52;1.42;;;;;;;10.71;82.42;99756.16;4232435;33;34446;-78
2022/10/08 03:56:15;;;;;;;3.65;3.37;;;;;;;11.14;81.24;99762.00;4219823;33;33453;-78
2022/10/08 03:58:44;;;;;;;1.80;1.70;;;;;;;10.92;82.10;99760.38;4220014;33;33924;-72
2022/10/08 04:01:14;;;;;;;2.20;1.45;;;;;;;10.32;84.64;99764.09;4232470;33;34904;-72
2022/10/08 04:03:44;;;;;;;3.25;1.37;;;;;;;10.78;83.32;99761.34;4232374;33;34450;-72
2022/10/08 04:06:12;;;;;;;8.00;3.60;;;;;;;10.82;83.15;99755.22;4219758;33;33561;-78
2022/10/08 04:08:40;;;;;;;1.67;1.58;;;;;;;11.10;80.71;99749.00;4232472;33;34529;-72
2022/10/08 04:11:10;;;;;;;3.55;2.87;;;;;;;10.71;83.23;99749.22;4218799;33;35042;-72
2022/10/08 04:13:38;;;;;;;1.95;1.73;;;;;;;10.53;83.51;99747.53;4229821;33;35288;-72
2022/10/08 04:16:09;;;;;;;0.70;0.70;;;;;;;10.61;84.34;99750.13;4231669;33;33194;-71
2022/10/08 04:18:38;;;;;;;4.68;1.42;;;;;;;10.83;83.83;99750.88;4232214;33;34060;-77
2022/10/08 04:21:09;;;;;;;3.67;1.27;;;;;;;11.03;82.57;99740.38;4219730;33;35016;-78
2022/10/08 04:23:39;;;;;;;3.25;3.05;;;;;;;10.98;83.32;99744.75;4219773;33;34472;-77
2022/10/08 04:26:08;;;;;;;3.17;1.98;;;;;;;10.76;84.20;99747.44;4219617;33;33322;-77
2022/10/08 04:28:36;;;;;;;1.87;1.73;;;;;;;10.63;85.47;99748.38;4219569;33;34170;-78
2022/10/08 04:31:09;;;;;;;3.72;2.92;;;;;;;10.90;85.00;99744.75;4219756;33;35133;-78
2022/10/08 04:33:37;;;;;;;2.72;2.10;;;;;;;11.02;84.02;99746.44;4219631;33;34444;-78
2022/10/08 04:36:09;;;;;;;0.75;0.75;;;;;;;11.27;84.06;99746.28;4238766;33;33281;-71
2022/10/08 04:38:37;;;;;;;4.15;2.87;;;;;;;11.23;85.80;99745.44;4235440;33;33867;-74
2022/10/08 04:41:12;;;;;;;1.98;1.77;;;;;;;11.14;85.64;99741.16;4247298;33;35976;-74
2022/10/08 04:43:42;;;;;;;2.00;1.90;;;;;;;11.46;84.61;99740.03;4246437;33;34288;-74
2022/10/08 04:46:12;;;;;;;1.48;1.25;;;;;;;11.16;85.82;99743.75;4247671;33;34434;-77
2022/10/08 04:48:48;;;;;;;1.23;1.23;;;;;;;11.62;84.89;99742.53;4212302;33;32866;-76
2022/10/08 04:51:18;;;;;;;3.58;3.28;;;;;;;11.68;85.71;99742.47;4247674;33;34717;-74
2022/10/08 04:53:46;;;;;;;2.10;1.77;;;;;;;11.42;87.37;99740.06;4243987;33;35153;-75
2022/10/08 04:56:23;;;;;;;4.68;2.90;;;;;;;11.66;87.77;99744.22;4246439;33;34345;-70
2022/10/08 04:58:53;;;;;;;2.33;2.12;;;;;;;11.76;86.90;99751.09;4247309;33;33913;-77
2022/10/08 05:01:22;;;;;;;2.08;1.92;;;;;;;11.85;87.22;99751.00;4247787;33;35037;-73
2022/10/08 05:03:51;;;;;;;2.97;2.47;;;;;;;12.01;86.86;99745.69;4247435;33;35210;-76
2022/10/08 05:06:21;;;;;;;0.77;0.77;;;;;;;11.93;86.77;99749.25;4236238;33;33483;-77
2022/10/08 05:08:49;;;;;;;4.00;3.17;;;;;;;12.27;86.41;99748.87;4243904;33;34648;-76
2022/10/08 05:11:18;;;;;;;2.65;2.03;;;;;;;11.99;87.93;99742.22;4229173;33;35499;-76
2022/10/08 05:13:50;;;;;;;1.52;1.45;;;;;;;12.25;87.84;99749.78;4243852;33;34425;-76
2022/10/08 05:16:18;;;;;;;3.10;1.90;;;;;;;12.47;87.05;99751.25;4223366;33;33124;-75
2022/10/08 05:18:47;;;;;;;2.33;2.12;;;;;;;12.45;86.64;99745.19;4247444;33;33816;-74
2022/10/08 05:21:17;;;;;;;5.97;2.62;;;;;;;12.65;86.46;99744.97;4234508;33;34757;-75
2022/10/08 05:23:45;;;;;;;1.67;1.45;;;;;;;12.54;87.28;99749.44;4232372;33;33631;-75
2022/10/08 05:26:19;;;;;;;5.72;2.17;;;;;;;12.39;86.94;99747.00;4234594;33;34264;-70
2022/10/08 05:29:09;;;;;;;3.95;2.08;;;;;;;12.55;85.92;99753.78;4247022;33;33913;-76
2022/10/08 05:31:37;;;;;;;1.73;1.60;;;;;;;12.70;85.62;99753.56;4247346;33;34496;-71
2022/10/08 05:34:05;;;;;;;1.95;1.77;;;;;;;12.90;84.43;99761.19;4247224;33;34349;-76
2022/10/08 05:36:33;;;;;;;2.58;2.37;;;;;;;12.98;85.08;99748.00;4247456;33;33666;-72
2022/10/08 05:39:04;;;;;;;1.73;1.35;;;;;;;13.13;84.77;99752.16;4247291;33;34836;-72
2022/10/08 05:41:34;;;;;;;2.62;2.20;;;;;;;13.25;85.90;99759.81;4234637;33;34324;-71
2022/10/08 05:44:03;;;;;;;2.03;1.92;;;;;;;13.26;85.55;99758.91;4247722;33;33635;-72
2022/10/08 05:46:33;;;;;;;1.98;1.77;;;;;;;14.01;84.31;99769.94;4247130;33;33476;-74
2022/10/08 05:49:04;;;;;;;2.67;2.05;;;;;;;14.02;83.38;99766.41;4243515;33;33909;-77
2022/10/08 05:51:32;;;;;;;1.23;0.95;;;;;;;14.39;81.66;99770.13;4246282;33;34440;-77
2022/10/08 05:54:00;;;;;;;2.12;1.48;;;;;;;14.24;81.50;99766.00;4234415;33;34455;-72
2022/10/08 05:56:28;;;;;;;2.12;1.92;;;;;;;14.96;80.41;99772.47;4247243;33;33433;-73
2022/10/08 05:58:56;;;;;;;1.27;1.17;;;;;;;15.44;75.18;99778.38;4246929;33;34832;-72
2022/10/08 06:01:27;;;;;;;2.35;1.92;;;;;;;15.97;73.80;99778.88;4247286;33;35997;-71
2022/10/08 06:03:57;;;;;;;3.25;2.05;;;;;;;16.21;70.37;99776.50;4247148;33;34314;-77
2022/10/08 06:06:25;;;;;;;1.48;1.37;;;;;;;16.69;69.26;99781.28;4247079;33;34397;-72
2022/10/08 06:08:55;;;;;;;2.53;2.33;;;;;;;16.43;69.51;99777.63;4247101;33;33899;-71
2022/10/08 06:11:27;;;;;;;2.20;1.70;;;;;;;16.59;69.68;99782.44;4234259;33;35120;-74
2022/10/08 06:13:56;;;;;;;2.50;2.15;;;;;;;16.85;68.12;99782.59;4247036;33;34603;-72
2022/10/08 06:16:25;;;;;;;6.32;1.58;;;;;;;16.86;67.94;99792.19;4234582;33;34378;-73
2022/10/08 06:18:53;;;;;;;3.85;2.10;;;;;;;17.07;68.20;99789.84;4247178;33;33913;-77
2022/10/08 06:21:23;;;;;;;1.87;1.20;;;;;;;17.08;67.45;99785.44;4247593;33;34971;-73
2022/10/08 06:24:04;;;;;;;2.20;2.00;;;;;;;17.33;67.52;99790.81;4235026;33;33694;-78
2022/10/08 06:26:35;;;;;;;2.12;1.90;;;;;;;17.78;65.69;99795.50;4234945;33;33522;-74
2022/10/08 06:29:05;;;;;;;0.90;0.90;;;;;;;17.85;64.26;99789.13;4234371;33;33907;-73
2022/10/08 06:31:34;;;;;;;2.08;1.85;;;;;;;17.67;63.91;99793.25;4246109;33;35127;-78
2022/10/08 06:34:03;;;;;;;1.80;1.70;;;;;;;17.97;63.60;99796.66;4246443;33;34411;-79
2022/10/08 06:36:33;;;;;;;1.52;1.37;;;;;;;17.63;65.21;99797.75;4247455;33;33446;-78
2022/10/08 06:39:04;;;;;;;3.87;1.65;;;;;;;17.93;63.95;99792.41;4246408;33;34712;-78
2022/10/08 06:41:33;;;;;;;3.10;2.20;;;;;;;17.82;65.25;99797.13;4234766;33;35936;-76
2022/10/08 06:44:07;;;;;;;2.12;1.60;;;;;;;17.80;64.43;99796.31;4234773;33;34447;-74
2022/10/08 06:46:35;;;;;;;3.15;2.62;;;;;;;18.18;63.72;99802.97;4246393;33;33441;-75
2022/10/08 06:49:04;;;;;;;2.40;2.20;;;;;;;18.20;62.79;99805.56;4234500;33;33232;-81
2022/10/08 06:51:33;;;;;;;6.82;2.70;;;;;;;17.96;64.29;99807.25;4223254;33;34322;-74
2022/10/08 06:54:01;;;;;;;1.45;1.35;;;;;;;18.14;62.96;99809.25;4246279;33;35173;-74
2022/10/08 06:56:36;;;;;;;1.62;1.52;;;;;;;17.79;63.40;99811.28;4235331;33;33466;-75
2022/10/08 06:59:05;;;;;;;4.60;2.80;;;;;;;17.47;65.22;99807.06;4222601;33;33944;-75
2022/10/08 07:01:33;;;;;;;1.80;1.60;;;;;;;17.54;64.35;99810.34;4247266;33;35039;-75
2022/10/08 07:04:05;;;;;;;1.62;1.52;;;;;;;17.39;65.06;99820.44;4247329;33;35245;-80
2022/10/08 07:06:34;;;;;;;2.03;1.60;;;;;;;17.20;65.81;99809.59;4234875;33;33381;-74
2022/10/08 07:09:03;;;;;;;2.85;2.37;;;;;;;17.51;64.75;99808.66;4223228;33;33434;-73
2022/10/08 07:11:32;;;;;;;1.40;1.30;;;;;;;17.90;62.73;99807.47;4234284;33;36014;-79
2022/10/08 07:14:00;;;;;;;0.82;0.82;;;;;;;17.88;61.85;99804.88;4247145;33;34477;-75
2022/10/08 07:16:28;;;;;;;1.70;1.35;;;;;;;18.16;62.87;99810.06;4234519;33;34446;-75
2022/10/08 07:18:57;;;;;;;2.42;2.00;;;;;;;18.37;61.93;99807.56;4247258;33;33719;-75
2022/10/08 07:21:26;;;;;;;1.30;1.27;;;;;;;18.24;62.46;99807.16;4246029;33;34197;-75
2022/10/08 07:23:55;;;;;;;1.67;1.42;;;;;;;18.68;61.59;99812.63;4234603;33;35238;-74
2022/10/08 07:26:25;;;;;;;2.10;1.30;;;;;;;19.19;60.92;99817.81;4247178;33;33573;-75
2022/10/08 07:29:03;;;;;;;3.87;1.17;;;;;;;19.29;57.46;99808.63;4234417;33;34063;-80
2022/10/08 07:31:34;;;;;;;2.10;1.77;;;;;;;19.32;58.66;99808.50;4234398;33;35035;-79
2022/10/08 07:34:06;;;;;;;3.58;2.08;;;;;;;19.27;59.08;99806.06;4234464;33;34463;-78
2022/10/08 07:36:34;;;;;;;2.15;1.77;;;;;;;19.37;59.48;99805.69;4247075;33;33649;-79
2022/10/08 07:39:06;;;;;;;2.45;2.25;;;;;;;20.05;58.00;99801.19;4234344;33;34032;-79
2022/10/08 07:41:34;;;;;;;2.25;1.87;;;;;;;19.97;59.01;99805.91;4246855;33;35863;-78
2022/10/08 07:44:03;;;;;;;1.50;1.20;;;;;;;20.37;57.32;99804.22;4234275;33;35268;-79
2022/10/08 07:46:34;;;;;;;6.45;1.80;;;;;;;20.79;56.83;99793.53;4234200;33;34228;-80
2022/10/08 07:49:03;;;;;;;1.45;1.35;;;;;;;20.49;57.70;99798.38;4234048;33;34755;-87
2022/10/08 07:51:32;;;;;;;2.53;1.87;;;;;;;20.74;55.17;99792.88;4233682;33;34996;-77
2022/10/08 07:54:02;;;;;;;0.90;0.90;;;;;;;20.72;56.39;99796.50;4246399;33;34115;-77
2022/10/08 07:56:31;;;;;;;2.42;2.22;;;;;;;21.06;55.50;99802.91;4246588;33;34393;-78
2022/10/08 07:59:00;;;;;;;2.67;2.40;;;;;;;21.07;55.95;99794.03;4233972;33;33944;-78
2022/10/08 08:01:28;;;;;;;1.40;1.30;;;;;;;21.18;54.91;99799.69;4228196;33;36008;-79
2022/10/08 08:04:00;;;;;;;2.37;2.15;;;;;;;21.73;54.27;99794.38;4245370;33;34579;-78
2022/10/08 08:06:30;;;;;;;1.27;1.20;;;;;;;22.12;53.09;99793.31;4233979;33;33517;-78
2022/10/08 08:08:59;;;;;;;1.30;1.20;;;;;;;22.18;51.19;99799.25;4245203;33;33796;-78
2022/10/08 08:11:28;;;;;;;1.48;1.35;;;;;;;21.85;53.83;99797.34;4234725;33;35940;-78
2022/10/08 08:13:56;;;;;;;1.17;1.08;;;;;;;22.41;51.45;99801.56;4235575;33;34370;-79
2022/10/08 08:16:26;;;;;;;2.72;2.42;;;;;;;;;;4248497;33;33492;-78
2022/10/08 08:18:56;;;;;;;11.07;3.35;;;;;;;21.95;49.91;99798.59;4248683;33;33882;-78
2022/10/08 08:21:27;;;;;;;2.03;1.27;;;;;;;22.17;51.28;99798.41;4248102;33;34384;-78
2022/10/08 08:23:57;;;;;;;0.68;0.68;;;;;;;21.93;51.65;99789.88;4235717;33;34575;-79
2022/10/08 08:26:24;;;;;;;2.12;2.03;;;;;;;22.31;51.45;99795.06;4248273;33;33563;-79
2022/10/08 08:28:58;;;;;;;2.62;1.80;;;;;;;22.49;51.38;99794.09;4247881;33;33954;-76
2022/10/08 08:31:34;;;;;;;1.50;1.40;;;;;;;22.34;51.89;99792.22;4246259;33;35915;-78
2022/10/08 08:34:14;;;;;;;2.95;2.35;;;;;;;22.85;49.82;99798.38;4235147;33;34460;-78
2022/10/08 08:36:45;;;;;;;2.03;1.90;;;;;;;22.66;50.22;99795.84;4224169;33;33584;-78
2022/10/08 08:39:16;;;;;;;1.45;1.35;;;;;;;23.09;48.62;99787.37;4247024;33;33625;-78
2022/10/08 08:42:17;;;;;;;1.70;0.93;;;;;;;23.23;45.60;99799.91;4235469;33;35049;-78
2022/10/08 08:44:55;;;;;;;1.98;1.65;;;;;;;23.26;47.36;99794.41;4225433;33;34434;-79
2022/10/08 08:47:23;;;;;;;2.22;1.52;;;;;;;23.44;46.86;99787.19;4235623;33;33406;-79
2022/10/08 08:50:03;;;;;;;3.28;1.33;;;;;;;23.24;47.11;99780.34;4248188;33;33875;-77
2022/10/08 08:52:35;;;;;;;2.60;2.40;;;;;;;24.11;44.35;99789.56;4235586;33;35975;-79
2022/10/08 08:55:12;;;;;;;3.30;2.03;;;;;;;23.37;47.75;99789.34;4223818;33;34529;-79
2022/10/08 08:58:12;;;;;;;0.98;0.95;;;;;;;23.34;47.74;99789.50;4235484;33;33830;-79
2022/10/08 09:00:42;;;;;;;1.80;1.70;;;;;;;24.04;45.15;99781.94;4223847;33;33375;-78
2022/10/08 09:03:49;;;;;;;2.65;2.45;;;;;;;24.07;46.18;99788.00;4224059;33;35245;-78
2022/10/08 09:06:21;;;;;;;2.83;1.85;;;;;;;24.29;44.83;99787.59;4219025;33;35246;-78
2022/10/08 09:09:00;;;;;;;3.53;2.50;;;;;;;24.35;44.23;99784.53;4248134;33;33574;-80
2022/10/08 09:11:29;;;;;;;3.00;1.87;;;;;;;25.03;42.74;99785.72;4235525;33;33504;-78
2022/10/08 09:14:20;;;;;;;3.80;1.25;;;;;;;25.32;42.11;99786.53;4247894;33;36059;-77
2022/10/08 09:16:48;;;;;;;3.37;1.58;;;;;;;25.78;40.43;99788.81;4248059;33;34468;-80
2022/10/08 09:19:16;;;;;;;1.95;1.77;;;;;;;26.19;39.29;99787.00;4231834;33;33654;-79
2022/10/08 09:21:44;;;;;;;2.80;2.03;;;;;;;26.28;39.24;99789.91;4246362;33;33900;-77
2022/10/08 09:24:13;;;;;;;0.70;0.70;;;;;;;25.61;40.95;99789.13;4246803;33;35231;-77
2022/10/08 09:26:41;;;;;;;2.40;2.20;;;;;;;25.82;40.11;99790.34;4246786;33;34440;-78
2022/10/08 09:29:29;;;;;;;1.50;1.20;;;;;;;26.22;39.48;99787.66;4246910;33;34256;-77
2022/10/08 09:31:57;;;;;;;2.17;1.95;;;;;;;26.67;38.15;99792.63;4248085;33;33885;-78
2022/10/08 09:34:26;;;;;;;3.60;2.30;;;;;;;26.75;39.13;99786.72;4246943;33;35647;-77
2022/10/08 09:37:03;;;;;;;0.88;0.62;;;;;;;26.57;37.92;99787.03;4247922;33;35311;-80
2022/10/08 09:39:34;;;;;;;2.00;1.52;;;;;;;25.99;39.04;99777.72;4242253;33;33365;-77
2022/10/08 09:42:18;;;;;;;1.55;1.10;;;;;;;26.18;37.94;99778.16;4247923;33;34067;-76
2022/10/08 09:44:48;;;;;;;2.58;1.17;;;;;;;25.69;38.98;99784.12;4235583;33;35110;-81
2022/10/08 09:47:18;;;;;;;1.20;1.10;;;;;;;25.75;40.20;99783.72;4247836;33;34576;-77
2022/10/08 09:50:02;;;;;;;1.17;1.15;;;;;;;25.52;37.90;99771.91;4235096;33;35188;-80
2022/10/08 09:52:32;;;;;;;1.67;1.58;;;;;;;25.60;37.70;99771.41;4248118;33;33895;-78
2022/10/08 09:55:40;;;;;;;5.32;0.95;;;;;;;25.61;40.67;99771.28;4235089;33;35540;-78
2022/10/08 09:58:15;;;;;;;1.15;1.08;;;;;;;25.88;38.31;99768.56;4189873;34;34567;-79
2022/10/08 10:00:44;;;;;;;2.97;2.60;;;;;;;25.94;38.32;99767.34;4178596;34;33331;-79
2022/10/08 10:03:16;;;;;;;1.12;0.98;;;;;;;25.92;39.81;99772.78;4209722;33;34025;-79
2022/10/08 10:05:49;;;;;;;4.57;2.10;;;;;;;26.78;37.19;99765.13;4246531;33;34884;-78
2022/10/08 10:08:49;;;;;;;1.25;1.15;;;;;;;26.98;37.07;99761.88;4246403;33;34601;-78
2022/10/08 10:11:46;;;;;;;2.05;1.83;;;;;;;27.05;34.66;99755.13;4247634;33;33617;-77
2022/10/08 10:14:20;;;;;;;2.15;1.37;;;;;;;25.74;35.80;99752.66;4247662;33;34717;-77
2022/10/08 10:16:51;;;;;;;2.15;2.03;;;;;;;25.28;39.21;99747.72;4234920;33;35788;-77
2022/10/08 10:19:23;;;;;;;0.35;0.35;;;;;;;25.72;39.59;99741.25;4234951;33;34475;-76
2022/10/08 10:22:04;;;;;;;0.32;0.32;;;;;;;26.26;38.05;99743.78;4234958;33;33592;-76
2022/10/08 10:24:47;;;;;;;0.25;0.25;;;;;;;26.06;38.34;99738.97;4241225;33;33909;-78
2022/10/08 10:27:19;;;;;;;0.73;0.68;;;;;;;26.37;36.41;99737.69;4246034;33;35617;-77
2022/10/08 10:30:12;;;;;;;1.25;1.15;;;;;;;26.82;34.78;99742.56;4246172;33;35225;-75
2022/10/08 10:33:04;;;;;;;0.65;0.65;;;;;;;26.92;34.33;99732.09;4245807;33;33387;-74
2022/10/08 10:35:46;;;;;;;1.87;1.73;;;;;;;26.16;35.67;99721.38;4242163;33;33874;-76
2022/10/08 10:38:20;;;;;;;0.57;0.57;;;;;;;26.45;37.33;99723.78;4246102;33;35769;-76
2022/10/08 10:41:01;;;;;;;0.85;0.85;;;;;;;26.80;35.92;99718.63;4234800;33;34503;-75
2022/10/08 10:43:28;;;;;;;1.08;1.02;;;;;;;26.92;35.33;99716.06;4234734;33;32911;-75
2022/10/08 10:46:00;;;;;;;1.00;0.93;;;;;;;26.45;34.63;99716.66;4234556;33;33458;-75
2022/10/08 10:48:28;;;;;;;2.83;1.33;;;;;;;26.24;37.97;99716.34;4234869;33;34922;-76
2022/10/08 10:51:09;;;;;;;1.25;0.90;;;;;;;26.51;37.17;99707.34;4247332;33;34454;-77
2022/10/08 10:54:14;;;;;;;0.75;0.75;;;;;;;27.00;35.31;99697.63;4234592;33;32667;-76
2022/10/08 10:56:48;;;;;;;0.55;0.55;;;;;;;27.16;34.42;99702.69;4247459;33;32925;-74
2022/10/08 10:59:29;;;;;;;0.80;0.80;;;;;;;27.40;33.66;99695.53;4246330;33;35909;-77
2022/10/08 11:02:12;;;;;;;0.57;0.57;;;;;;;27.14;34.02;99688.59;4247447;33;35341;-76
2022/10/08 11:04:43;;;;;;;1.75;1.35;;;;;;;26.92;34.74;99689.31;4246309;33;34337;-76
2022/10/08 11:07:26;;;;;;;1.17;0.82;;;;;;;26.37;34.71;99683.44;4247306;33;33876;-75
2022/10/08 11:09:59;;;;;;;0.35;0.30;;;;;;;26.43;34.73;99693.69;4234275;33;34335;-75
2022/10/08 11:13:01;;;;;;;0.85;0.85;;;;;;;26.07;35.59;99681.97;4247003;33;35217;-74
2022/10/08 11:16:14;;;;;;;1.02;1.02;;;;;;;26.33;36.41;99676.59;4232817;33;32661;-75
2022/10/08 11:18:50;;;;;;;3.33;1.35;;;;;;;26.95;35.89;99678.38;4203376;34;34802;-74
2022/10/08 11:21:27;;;;;;;0.50;0.50;;;;;;;26.86;35.02;99672.78;4232253;33;35151;-74
2022/10/08 11:24:11;;;;;;;0.65;0.65;;;;;;;26.45;34.58;99673.06;4247177;33;34584;-73
2022/10/08 11:26:51;;;;;;;1.00;0.90;;;;;;;26.64;35.00;99681.47;4234316;33;31876;-74
2022/10/08 11:29:32;;;;;;;1.48;1.37;;;;;;;26.69;36.13;99669.62;4246019;33;33845;-75
2022/10/08 11:32:00;;;;;;;0.85;0.65;;;;;;;26.87;36.12;99670.94;4234105;33;35001;-75
2022/10/08 11:34:38;;;;;;;1.25;0.70;;;;;;;26.55;35.28;99665.25;4246987;33;34625;-75
2022/10/08 11:37:26;;;;;;;2.47;1.17;;;;;;;26.44;34.70;99660.69;4247010;33;33722;-74
2022/10/08 11:40:22;;;;;;;0.70;0.70;;;;;;;25.95;35.22;99653.47;4245994;33;34072;-74
2022/10/08 11:43:28;;;;;;;0.55;0.52;;;;;;;25.88;38.62;99648.53;4245934;33;34212;-74
2022/10/08 11:46:32;;;;;;;0.77;0.77;;;;;;;26.10;36.38;99649.72;4246597;33;34723;-74
2022/10/08 11:49:10;;;;;;;0.90;0.90;;;;;;;26.06;39.25;99653.56;4193164;34;33430;-74
2022/10/08 11:51:50;;;;;;;1.67;1.33;;;;;;;26.33;36.59;99649.91;4243550;33;33972;-74
2022/10/08 11:54:33;;;;;;;0.90;0.90;;;;;;;25.65;39.40;99644.78;4247539;33;34994;-74
2022/10/08 11:57:20;;;;;;;1.15;1.10;;;;;;;25.85;38.07;99642.53;4248572;33;34065;-74
2022/10/08 11:59:56;;;;;;;0.20;0.20;;;;;;;25.95;35.65;99635.66;4248586;33;32938;-73
2022/10/08 12:02:34;;;;;;;0.75;0.70;;;;;;;25.72;38.13;99638.06;4247670;33;33934;-74
2022/10/08 12:05:16;;;;;;;0.77;0.77;;;;;;;25.84;37.88;99632.84;4248257;33;35933;-73